createdAt,value
2018-05-07T00:01:37.584Z,12.00
2018-05-07T00:04:05.968Z,11.90
2018-05-07T00:06:33.551Z,11.90
2018-05-07T00:09:02.810Z,12.10
2018-05-07T00:11:30.396Z,12.00
2018-05-07T00:13:57.940Z,12.00
2018-05-07T00:16:26.504Z,12.00
2018-05-07T00:18:54.084Z,12.00
2018-05-07T00:21:21.638Z,11.80
2018-05-07T00:23:49.379Z,11.70
2018-05-07T00:26:17.682Z,11.70
2018-05-07T00:28:45.191Z,11.60
2018-05-07T00:31:12.755Z,11.80
2018-05-07T00:33:40.322Z,11.80
2018-05-07T00:36:08.649Z,11.70
2018-05-07T00:38:36.177Z,11.70
2018-05-07T00:41:04.617Z,11.60
2018-05-07T00:43:33.070Z,11.50
2018-05-07T00:46:00.699Z,11.60
2018-05-07T00:48:28.224Z,11.50
2018-05-07T00:50:56.744Z,11.40
2018-05-07T00:53:24.274Z,11.40
2018-05-07T00:55:51.822Z,11.60
2018-05-07T00:58:19.348Z,11.80
2018-05-07T01:00:46.923Z,11.80
2018-05-07T01:03:14.455Z,11.50
2018-05-07T01:05:42.025Z,11.40
2018-05-07T01:08:09.604Z,11.50
2018-05-07T01:10:37.208Z,11.60
2018-05-07T01:13:04.850Z,11.50
2018-05-07T01:15:32.428Z,11.50
2018-05-07T01:18:00.056Z,11.50
2018-05-07T01:20:27.635Z,11.50
2018-05-07T01:22:56.185Z,11.40
2018-05-07T01:25:23.787Z,11.40
2018-05-07T01:27:51.385Z,11.40
2018-05-07T01:30:19.700Z,11.40
2018-05-07T01:32:47.224Z,11.30
2018-05-07T01:35:14.781Z,11.30
2018-05-07T01:37:42.310Z,11.30
2018-05-07T01:40:09.831Z,11.20
2018-05-07T01:42:37.383Z,11.10
2018-05-07T01:45:05.764Z,11.00
2018-05-07T01:47:33.257Z,11.00
2018-05-07T01:50:00.879Z,11.00
2018-05-07T01:52:28.398Z,10.90
2018-05-07T01:54:56.012Z,10.80
2018-05-07T01:57:23.584Z,10.70
2018-05-07T01:59:51.134Z,10.80
2018-05-07T02:02:19.673Z,10.80
2018-05-07T02:04:48.059Z,10.70
2018-05-07T02:07:15.580Z,10.70
2018-05-07T02:09:43.118Z,10.70
2018-05-07T02:12:10.776Z,10.60
2018-05-07T02:14:38.331Z,10.60
2018-05-07T02:17:06.812Z,10.40
2018-05-07T02:19:34.404Z,10.40
2018-05-07T02:22:01.943Z,10.40
2018-05-07T02:24:29.486Z,10.40
2018-05-07T02:26:57.027Z,10.40
2018-05-07T02:29:24.647Z,10.40
2018-05-07T02:31:52.207Z,10.40
2018-05-07T02:34:19.826Z,10.40
2018-05-07T02:36:47.392Z,10.30
2018-05-07T02:39:15.738Z,10.30
2018-05-07T02:41:43.254Z,10.30
2018-05-07T02:44:11.711Z,10.40
2018-05-07T02:46:39.314Z,10.50
2018-05-07T02:49:07.683Z,10.30
2018-05-07T02:51:35.213Z,10.20
2018-05-07T02:54:02.768Z,10.30
2018-05-07T02:56:30.374Z,10.30
2018-05-07T02:58:57.930Z,10.30
2018-05-07T03:01:26.383Z,10.30
2018-05-07T03:03:53.970Z,10.30
2018-05-07T03:06:21.488Z,10.10
2018-05-07T03:08:49.018Z,10.00
2018-05-07T03:11:16.563Z,9.90
2018-05-07T03:13:44.113Z,9.80
2018-05-07T03:16:11.639Z,9.80
2018-05-07T03:18:39.929Z,9.70
2018-05-07T03:21:07.484Z,9.60
2018-05-07T03:23:36.503Z,9.60
2018-05-07T03:26:04.054Z,9.60
2018-05-07T03:28:31.680Z,9.70
2018-05-07T03:30:59.174Z,9.80
2018-05-07T03:33:26.706Z,9.90
2018-05-07T03:35:54.325Z,10.10
2018-05-07T03:38:21.880Z,10.20
2018-05-07T03:40:49.435Z,10.30
2018-05-07T03:43:16.962Z,9.90
2018-05-07T03:45:44.504Z,10.00
2018-05-07T03:48:12.032Z,9.90
2018-05-07T03:50:39.601Z,10.20
2018-05-07T03:53:08.154Z,10.20
2018-05-07T03:55:35.757Z,10.20
2018-05-07T03:58:03.305Z,10.10
2018-05-07T04:00:30.917Z,10.10
2018-05-07T04:02:58.564Z,10.10
2018-05-07T04:05:26.154Z,10.10
2018-05-07T04:07:53.680Z,10.10
2018-05-07T04:10:21.988Z,10.50
2018-05-07T04:12:49.648Z,10.50
2018-05-07T04:15:17.189Z,10.40
2018-05-07T04:17:57.333Z,10.30
2018-05-07T04:20:37.377Z,10.40
2018-05-07T04:23:16.831Z,10.40
2018-05-07T04:25:46.079Z,10.50
2018-05-07T04:28:13.593Z,10.50
2018-05-07T04:30:41.143Z,10.60
2018-05-07T04:33:08.728Z,10.60
2018-05-07T04:35:36.313Z,10.70
2018-05-07T04:38:03.859Z,10.80
2018-05-07T04:40:32.341Z,11.10
2018-05-07T04:43:00.925Z,11.80
2018-05-07T04:45:29.465Z,12.20
2018-05-07T04:47:57.075Z,12.20
2018-05-07T04:50:24.615Z,12.60
2018-05-07T04:52:52.146Z,12.80
2018-05-07T04:55:19.762Z,13.00
2018-05-07T04:57:47.375Z,13.10
2018-05-07T05:00:15.001Z,13.30
2018-05-07T05:02:43.465Z,13.50
2018-05-07T05:05:12.959Z,13.70
2018-05-07T05:07:40.522Z,13.90
2018-05-07T05:10:08.522Z,13.90
2018-05-07T05:12:36.127Z,13.70
2018-05-07T05:15:04.588Z,13.20
2018-05-07T05:17:32.208Z,13.00
2018-05-07T05:19:59.812Z,12.70
2018-05-07T05:22:27.403Z,12.60
2018-05-07T05:24:55.735Z,12.30
2018-05-07T05:27:23.409Z,12.30
2018-05-07T05:29:51.734Z,12.30
2018-05-07T05:32:19.320Z,12.30
2018-05-07T05:34:46.806Z,12.30
2018-05-07T05:37:14.380Z,12.30
2018-05-07T05:39:42.689Z,12.20
2018-05-07T05:42:10.209Z,12.20
2018-05-07T05:44:37.811Z,12.30
2018-05-07T05:47:05.343Z,12.40
2018-05-07T05:49:32.888Z,12.30
2018-05-07T05:52:01.368Z,12.50
2018-05-07T05:54:28.903Z,12.50
2018-05-07T05:56:56.505Z,12.50
2018-05-07T05:59:24.061Z,12.50
2018-05-07T06:01:51.685Z,12.50
2018-05-07T06:04:19.251Z,12.60
2018-05-07T06:06:46.816Z,12.70
2018-05-07T06:09:15.268Z,12.70
2018-05-07T06:11:42.777Z,12.80
2018-05-07T06:14:10.344Z,13.00
2018-05-07T06:16:53.482Z,12.90
2018-05-07T06:19:21.806Z,12.90
2018-05-07T06:21:49.303Z,12.90
2018-05-07T06:24:16.931Z,13.00
2018-05-07T06:26:44.472Z,12.90
2018-05-07T06:29:12.372Z,13.00
2018-05-07T06:31:42.288Z,13.30
2018-05-07T06:34:11.505Z,13.60
2018-05-07T06:36:39.129Z,13.60
2018-05-07T06:39:06.654Z,14.20
2018-05-07T06:41:34.688Z,14.40
2018-05-07T06:44:04.345Z,14.30
2018-05-07T06:46:31.877Z,14.80
2018-05-07T06:48:59.408Z,15.00
2018-05-07T06:51:26.929Z,15.00
2018-05-07T06:53:55.360Z,15.10
2018-05-07T06:56:22.900Z,15.00
2018-05-07T06:58:50.454Z,14.90
2018-05-07T07:01:21.633Z,15.50
2018-05-07T07:03:49.185Z,15.40
2018-05-07T07:06:16.748Z,15.50
2018-05-07T07:08:46.563Z,14.90
2018-05-07T07:11:14.090Z,14.90
2018-05-07T07:13:44.479Z,15.40
2018-05-07T07:16:14.501Z,15.40
2018-05-07T07:18:45.498Z,14.80
2018-05-07T07:21:12.999Z,14.70
2018-05-07T07:23:40.493Z,15.00
2018-05-07T07:26:08.015Z,15.10
2018-05-07T07:28:35.520Z,14.90
2018-05-07T07:31:04.515Z,14.90
2018-05-07T07:33:34.014Z,15.40
2018-05-07T07:36:02.292Z,15.00
2018-05-07T07:38:33.220Z,15.10
2018-05-07T07:41:01.679Z,15.00
2018-05-07T07:43:30.125Z,15.00
2018-05-07T07:45:57.631Z,15.20
2018-05-07T07:48:26.165Z,15.10
2018-05-07T07:50:54.895Z,15.30
2018-05-07T07:53:25.276Z,15.30
2018-05-07T07:55:52.814Z,15.30
2018-05-07T07:58:20.314Z,15.60
2018-05-07T08:00:48.649Z,15.70
2018-05-07T08:03:19.451Z,15.70
2018-05-07T08:05:46.985Z,15.60
2018-05-07T08:08:15.292Z,15.40
2018-05-07T08:10:42.892Z,15.40
2018-05-07T08:13:12.145Z,15.50
2018-05-07T08:15:40.848Z,15.30
2018-05-07T08:18:08.351Z,15.50
2018-05-07T08:20:35.933Z,15.50
2018-05-07T08:23:03.508Z,15.70
2018-05-07T08:25:31.087Z,15.70
2018-05-07T08:28:01.403Z,16.20
2018-05-07T08:30:28.961Z,16.20
2018-05-07T08:32:57.561Z,16.20
2018-05-07T08:35:25.116Z,16.40
2018-05-07T08:37:55.458Z,16.20
2018-05-07T08:40:23.727Z,16.10
2018-05-07T08:42:51.243Z,16.10
2018-05-07T08:45:38.347Z,16.30
2018-05-07T08:50:59.927Z,16.40
2018-05-07T08:53:28.450Z,16.30
2018-05-07T08:55:55.991Z,16.40
2018-05-07T08:58:25.344Z,16.60
2018-05-07T09:00:52.876Z,16.90
2018-05-07T09:03:21.605Z,16.90
2018-05-07T09:05:51.602Z,17.10
2018-05-07T09:08:19.117Z,17.20
2018-05-07T09:10:48.745Z,16.90
2018-05-07T09:13:16.826Z,17.10
2018-05-07T09:15:45.640Z,17.60
2018-05-07T09:18:13.128Z,17.30
2018-05-07T09:20:40.811Z,17.90
2018-05-07T09:23:08.815Z,18.30
2018-05-07T09:25:37.593Z,18.60
2018-05-07T09:28:08.156Z,18.20
2018-05-07T09:30:37.833Z,18.90
2018-05-07T09:33:06.436Z,18.90
2018-05-07T09:35:33.947Z,18.70
2018-05-07T09:38:01.446Z,19.00
2018-05-07T09:40:28.998Z,19.50
2018-05-07T09:43:00.244Z,19.60
2018-05-07T09:45:30.079Z,19.60
2018-05-07T09:47:58.847Z,19.40
2018-05-07T09:50:31.609Z,19.50
2018-05-07T09:52:59.695Z,19.30
2018-05-07T09:55:27.215Z,19.40
2018-05-07T09:58:03.461Z,19.30
2018-05-07T10:00:37.487Z,19.10
2018-05-07T10:03:08.002Z,19.20
2018-05-07T10:05:37.356Z,19.20
2018-05-07T10:08:04.908Z,19.60
2018-05-07T10:10:34.231Z,20.20
2018-05-07T10:13:01.828Z,20.20
2018-05-07T10:15:29.967Z,20.50
2018-05-07T10:17:58.219Z,20.00
2018-05-07T10:20:26.504Z,20.00
2018-05-07T10:22:54.963Z,20.00
2018-05-07T10:25:22.467Z,19.80
2018-05-07T10:27:51.696Z,19.80
2018-05-07T10:30:19.235Z,19.70
2018-05-07T10:32:47.976Z,20.30
2018-05-07T10:35:17.805Z,20.70
2018-05-07T10:37:45.283Z,20.70
2018-05-07T10:40:12.863Z,20.10
2018-05-07T10:42:40.394Z,20.30
2018-05-07T10:45:08.286Z,20.20
2018-05-07T10:47:56.336Z,20.20
2018-05-07T10:50:24.614Z,20.60
2018-05-07T10:52:53.972Z,20.70
2018-05-07T10:55:22.389Z,20.70
2018-05-07T10:57:49.904Z,21.10
2018-05-07T11:13:32.382Z,21.00
2018-05-07T11:15:59.962Z,20.90
2018-05-07T11:18:27.505Z,20.80
2018-05-07T11:20:56.715Z,21.30
2018-05-07T11:23:25.168Z,21.30
2018-05-07T11:25:54.612Z,21.40
2018-05-07T11:28:22.133Z,21.70
2018-05-07T11:30:49.934Z,21.60
2018-05-07T11:33:19.788Z,21.60
2018-05-07T11:35:47.484Z,21.50
2018-05-07T11:38:15.866Z,21.50
2018-05-07T11:40:44.167Z,21.20
2018-05-07T11:43:12.507Z,21.60
2018-05-07T11:45:40.437Z,21.60
2018-05-07T11:48:08.669Z,21.50
2018-05-07T11:50:36.194Z,21.60
2018-05-07T11:53:05.276Z,21.60
2018-05-07T11:55:33.812Z,21.20
2018-05-07T11:58:01.317Z,21.20
2018-05-07T12:00:31.652Z,21.40
2018-05-07T12:02:59.227Z,21.40
2018-05-07T12:05:26.735Z,21.30
2018-05-07T12:07:55.200Z,21.70
2018-05-07T12:10:22.713Z,21.90
2018-05-07T12:12:50.301Z,22.00
2018-05-07T12:15:17.824Z,21.90
2018-05-07T12:17:46.466Z,21.90
2018-05-07T12:20:14.059Z,22.10
2018-05-07T12:22:42.571Z,22.30
2018-05-07T12:25:10.079Z,22.00
2018-05-07T12:27:38.723Z,22.30
2018-05-07T12:30:09.226Z,22.10
2018-05-07T12:32:36.770Z,22.50
2018-05-07T12:35:04.540Z,22.00
2018-05-07T12:37:32.037Z,21.80
2018-05-07T12:40:00.844Z,21.30
2018-05-07T12:42:29.143Z,21.40
2018-05-07T12:44:57.501Z,21.60
2018-05-07T12:47:27.431Z,21.60
2018-05-07T12:49:55.851Z,21.60
2018-05-07T12:52:23.465Z,21.60
2018-05-07T12:54:52.884Z,21.80
2018-05-07T12:57:20.442Z,21.80
2018-05-07T12:59:48.346Z,22.10
2018-05-07T13:02:16.517Z,22.10
2018-05-07T13:04:44.043Z,22.60
2018-05-07T13:07:12.473Z,22.50
2018-05-07T13:09:40.820Z,22.70
2018-05-07T13:12:10.450Z,22.70
2018-05-07T13:14:37.945Z,22.40
2018-05-07T13:17:05.530Z,22.30
2018-05-07T13:19:33.517Z,22.50
2018-05-07T13:22:03.587Z,23.00
2018-05-07T13:24:31.081Z,23.20
2018-05-07T13:26:58.645Z,23.10
2018-05-07T13:29:26.233Z,23.50
2018-05-07T13:31:55.236Z,23.80
2018-05-07T13:34:23.803Z,24.10
2018-05-07T13:36:51.363Z,24.10
2018-05-07T13:39:19.602Z,23.90
2018-05-07T13:41:48.094Z,23.90
2018-05-07T13:44:17.651Z,23.80
2018-05-07T13:46:46.215Z,23.80
2018-05-07T13:49:13.723Z,23.20
2018-05-07T13:51:42.145Z,23.60
2018-05-07T13:54:12.461Z,23.80
2018-05-07T13:56:40.496Z,23.80
2018-05-07T13:59:08.052Z,23.90
2018-05-07T14:01:35.593Z,24.00
2018-05-07T14:04:03.099Z,23.80
2018-05-07T14:06:32.125Z,23.70
2018-05-07T14:09:01.178Z,23.50
2018-05-07T14:11:28.731Z,23.90
2018-05-07T14:13:56.480Z,24.20
2018-05-07T14:16:24.038Z,24.20
2018-05-07T14:18:51.576Z,24.30
2018-05-07T14:21:19.074Z,24.30
2018-05-07T14:23:46.620Z,24.00
2018-05-07T14:26:16.205Z,23.80
2018-05-07T14:28:44.539Z,24.00
2018-05-07T14:31:12.473Z,24.20
2018-05-07T14:33:40.001Z,24.00
2018-05-07T14:36:08.462Z,24.30
2018-05-07T14:38:37.502Z,24.50
2018-05-07T14:41:06.256Z,24.70
2018-05-07T14:43:33.770Z,24.20
2018-05-07T14:46:01.272Z,24.20
2018-05-07T14:48:28.851Z,24.20
2018-05-07T14:50:58.577Z,24.20
2018-05-07T14:53:26.482Z,24.10
2018-05-07T14:55:54.098Z,24.10
2018-05-07T14:58:22.384Z,24.30
2018-05-07T15:00:50.440Z,24.50
2018-05-07T15:03:20.091Z,24.00
2018-05-07T15:05:47.644Z,24.00
2018-05-07T15:08:15.331Z,23.90
2018-05-07T15:10:43.645Z,23.50
2018-05-07T15:13:11.224Z,23.50
2018-05-07T15:15:40.752Z,23.10
2018-05-07T15:18:09.380Z,23.20
2018-05-07T15:20:37.080Z,22.80
2018-05-07T15:23:05.770Z,22.70
2018-05-07T15:25:33.436Z,22.40
2018-05-07T15:28:02.316Z,22.30
2018-05-07T15:30:29.912Z,22.20
2018-05-07T15:32:58.227Z,22.00
2018-05-07T15:35:25.780Z,22.00
2018-05-07T15:37:54.265Z,22.00
2018-05-07T15:40:21.805Z,22.00
2018-05-07T15:42:50.082Z,21.70
2018-05-07T15:45:18.455Z,21.50
2018-05-07T15:47:45.977Z,21.50
2018-05-07T15:50:13.506Z,21.40
2018-05-07T15:52:41.066Z,21.30
2018-05-07T15:55:08.637Z,21.20
2018-05-07T15:57:36.267Z,21.20
2018-05-07T16:00:03.840Z,21.10
2018-05-07T16:02:31.998Z,20.80
2018-05-07T16:04:59.547Z,20.80
2018-05-07T16:07:27.061Z,20.70
2018-05-07T16:09:54.652Z,20.70
2018-05-07T16:12:22.242Z,20.60
2018-05-07T16:14:49.840Z,20.60
2018-05-07T16:17:19.099Z,20.60
2018-05-07T16:19:46.671Z,20.60
2018-05-07T16:22:14.372Z,20.60
2018-05-07T16:24:44.038Z,20.60
2018-05-07T16:27:15.614Z,20.70
2018-05-07T16:29:43.244Z,20.70
2018-05-07T16:32:11.799Z,20.80
2018-05-07T16:34:40.140Z,20.90
2018-05-07T16:37:07.724Z,20.90
2018-05-07T16:39:37.456Z,21.00
2018-05-07T16:42:05.163Z,21.00
2018-05-07T16:44:32.746Z,21.00
2018-05-07T16:47:00.616Z,21.10
2018-05-07T16:49:28.160Z,21.00
2018-05-07T16:51:55.790Z,20.90
2018-05-07T16:54:23.347Z,20.80
2018-05-07T16:56:50.976Z,20.70
2018-05-07T16:59:18.589Z,20.60
2018-05-07T17:01:46.135Z,20.70
2018-05-07T17:04:14.469Z,20.90
2018-05-07T17:06:42.075Z,20.80
2018-05-07T17:09:09.656Z,20.90
2018-05-07T17:11:38.113Z,20.90
2018-05-07T17:14:05.717Z,20.80
2018-05-07T17:16:33.218Z,20.70
2018-05-07T17:19:18.641Z,20.80
2018-05-07T17:21:46.209Z,20.70
2018-05-07T17:37:34.345Z,21.00
2018-05-07T17:40:03.009Z,21.20
2018-05-07T17:42:30.566Z,21.20
2018-05-07T17:45:19.215Z,21.20
2018-05-07T17:48:05.258Z,21.20
2018-05-07T17:50:32.785Z,21.00
2018-05-07T17:53:00.565Z,20.60
2018-05-07T17:55:28.114Z,20.60
2018-05-07T17:57:56.404Z,20.60
2018-05-07T18:00:23.961Z,20.40
2018-05-07T18:02:51.485Z,20.30
2018-05-07T18:05:20.358Z,20.10
2018-05-07T18:07:48.407Z,19.90
2018-05-07T18:10:16.050Z,19.90
2018-05-07T18:12:43.686Z,19.80
2018-05-07T18:15:11.350Z,19.50
2018-05-07T18:17:39.840Z,19.40
2018-05-07T18:20:07.467Z,19.30
2018-05-07T18:22:37.273Z,19.20
2018-05-07T18:25:05.921Z,19.10
2018-05-07T18:27:33.543Z,19.20
2018-05-07T18:30:01.899Z,19.00
2018-05-07T18:32:29.490Z,19.00
2018-05-07T18:34:57.790Z,18.90
2018-05-07T18:37:25.360Z,18.90
2018-05-07T18:39:52.965Z,18.90
2018-05-07T18:42:20.569Z,18.80
2018-05-07T18:44:48.865Z,18.40
2018-05-07T18:47:16.426Z,18.20
2018-05-07T18:49:44.021Z,18.10
2018-05-07T18:52:12.329Z,18.00
2018-05-07T18:54:39.906Z,17.80
2018-05-07T18:57:07.686Z,17.60
2018-05-07T18:59:35.470Z,17.50
2018-05-07T19:02:03.285Z,17.40
2018-05-07T19:04:31.635Z,17.20
2018-05-07T19:07:00.151Z,17.20
2018-05-07T19:09:28.011Z,17.00
2018-05-07T19:11:55.723Z,16.90
2018-05-07T19:14:23.519Z,17.00
2018-05-07T19:16:51.863Z,16.90
2018-05-07T19:19:19.430Z,16.90
2018-05-07T19:21:47.258Z,16.50
2018-05-07T19:24:17.094Z,16.40
2018-05-07T19:26:45.694Z,16.40
2018-05-07T19:29:13.470Z,16.40
2018-05-07T19:31:42.140Z,16.30
2018-05-07T19:34:09.817Z,16.20
2018-05-07T19:36:37.633Z,16.20
2018-05-07T19:39:06.477Z,16.00
2018-05-07T19:41:36.240Z,15.90
2018-05-07T19:44:03.907Z,15.90
2018-05-07T19:46:31.448Z,15.80
2018-05-07T19:48:59.871Z,15.80
2018-05-07T19:51:27.664Z,15.80
2018-05-07T19:53:57.149Z,15.90
2018-05-07T19:56:24.804Z,15.90
2018-05-07T19:58:52.627Z,16.00
2018-05-07T20:01:20.188Z,16.00
2018-05-07T20:04:06.562Z,15.90
2018-05-07T20:06:34.062Z,15.90
2018-05-07T20:09:02.663Z,15.90
2018-05-07T20:11:30.182Z,16.00
2018-05-07T20:13:57.765Z,16.00
2018-05-07T20:16:25.425Z,16.00
2018-05-07T20:18:52.991Z,16.00
2018-05-07T20:21:39.232Z,15.90
2018-05-07T20:24:07.574Z,16.00
2018-05-07T20:26:36.016Z,16.00
2018-05-07T20:31:54.776Z,16.20
2018-05-07T20:34:22.550Z,16.20
2018-05-07T20:36:50.123Z,16.20
2018-05-07T20:39:17.688Z,16.10
2018-05-07T20:41:45.566Z,16.10
2018-05-07T20:44:13.162Z,16.10
2018-05-07T20:46:40.778Z,16.00
2018-05-07T20:49:09.290Z,15.90
2018-05-07T20:51:37.815Z,15.80
2018-05-07T20:54:05.413Z,15.50
2018-05-07T20:56:33.365Z,15.30
2018-05-07T20:59:00.951Z,15.30
2018-05-07T21:01:28.592Z,15.30
2018-05-07T21:03:56.901Z,15.20
2018-05-07T21:06:24.711Z,15.20
2018-05-07T21:08:52.456Z,15.20
2018-05-07T21:11:19.998Z,15.10
2018-05-07T21:13:49.061Z,15.10
2018-05-07T21:16:16.615Z,15.10
2018-05-07T21:18:44.140Z,15.10
2018-05-07T21:21:11.723Z,15.10
2018-05-07T21:23:39.377Z,15.00
2018-05-07T21:26:06.902Z,14.90
2018-05-07T21:28:36.373Z,15.00
2018-05-07T21:31:04.000Z,14.90
2018-05-07T21:33:31.548Z,14.90
2018-05-07T21:35:59.139Z,14.80
2018-05-07T21:38:26.766Z,14.80
2018-05-07T21:40:54.286Z,14.60
2018-05-07T21:43:21.849Z,14.50
2018-05-07T21:45:49.379Z,14.30
2018-05-07T21:48:16.938Z,14.30
2018-05-07T21:50:46.205Z,14.40
2018-05-07T21:53:13.798Z,14.30
2018-05-07T21:55:41.454Z,14.30
2018-05-07T21:58:09.090Z,14.20
2018-05-07T22:00:36.749Z,14.10
2018-05-07T22:03:06.477Z,14.10
2018-05-07T22:05:34.008Z,14.20
2018-05-07T22:08:01.640Z,14.20
2018-05-07T22:10:29.261Z,14.20
2018-05-07T22:12:57.108Z,14.20
2018-05-07T22:15:26.362Z,14.00
2018-05-07T22:17:54.753Z,14.00
2018-05-07T22:20:22.425Z,13.90
2018-05-07T22:22:50.030Z,14.00
2018-05-07T22:25:17.793Z,13.90
2018-05-07T22:27:46.324Z,14.00
2018-05-07T22:30:14.837Z,14.00
2018-05-07T22:32:42.854Z,13.90
2018-05-07T22:35:10.604Z,13.90
2018-05-07T22:37:38.258Z,14.00
2018-05-07T22:40:06.582Z,13.80
2018-05-07T22:42:34.460Z,13.80
2018-05-07T22:45:02.046Z,13.80
2018-05-07T22:47:30.572Z,13.80
2018-05-07T22:49:58.882Z,13.90
2018-05-07T22:52:27.093Z,13.90
2018-05-07T22:55:05.963Z,14.10
2018-05-07T22:57:34.338Z,13.80
2018-05-07T23:00:04.732Z,13.80
2018-05-07T23:02:32.622Z,13.80
2018-05-07T23:05:00.539Z,14.00
2018-05-07T23:07:28.140Z,14.00
2018-05-07T23:09:56.557Z,14.10
2018-05-07T23:12:25.247Z,13.50
2018-05-07T23:14:53.048Z,13.50
2018-05-07T23:17:20.927Z,13.40
2018-05-07T23:19:50.509Z,13.30
2018-05-07T23:22:18.845Z,13.20
2018-05-07T23:24:46.981Z,13.20
2018-05-07T23:27:15.524Z,13.20
2018-05-07T23:29:45.712Z,13.30
2018-05-07T23:32:13.648Z,13.20
2018-05-07T23:34:41.988Z,13.10
2018-05-07T23:37:10.638Z,13.10
2018-05-07T23:39:40.207Z,13.10
2018-05-07T23:42:08.926Z,13.10
2018-05-07T23:44:38.235Z,13.00
2018-05-07T23:47:07.502Z,12.90
2018-05-07T23:49:35.180Z,12.90
2018-05-07T23:52:04.848Z,12.90
2018-05-07T23:54:33.385Z,12.90
2018-05-07T23:57:01.053Z,12.90
2018-05-07T23:59:29.749Z,13.00
